sensor_id;sensor_type;location;lat;lon;timestamp;temperature;humidity
1536;DHT22;761;50.074;8.228;2022-12-18T07:52:45;-7.60;1.00
1536;DHT22;761;50.074;8.228;2022-12-18T07:55:36;-7.50;1.00
1536;DHT22;761;50.074;8.228;2022-12-18T07:58:25;-7.50;1.00
1536;DHT22;761;50.074;8.228;2022-12-18T08:00:53;-7.50;1.00
1536;DHT22;761;50.074;8.228;2022-12-18T08:03:21;-7.30;1.00
1536;DHT22;761;50.074;8.228;2022-12-18T08:05:50;-7.20;1.00
1536;DHT22;761;50.074;8.228;2022-12-18T08:08:21;-7.10;1.00
1536;DHT22;761;50.074;8.228;2022-12-18T08:10:49;-6.90;1.00
1536;DHT22;761;50.074;8.228;2022-12-18T08:13:17;-6.70;1.00
1536;DHT22;761;50.074;8.228;2022-12-18T08:15:45;-6.70;1.00
1536;DHT22;761;50.074;8.228;2022-12-18T08:18:13;-6.60;1.00
1536;DHT22;761;50.074;8.228;2022-12-18T08:20:42;-6.20;1.00
1536;DHT22;761;50.074;8.228;2022-12-18T08:23:10;-5.60;1.00
1536;DHT22;761;50.074;8.228;2022-12-18T08:25:39;-6.40;1.00
1536;DHT22;761;50.074;8.228;2022-12-18T08:28:07;-5.30;1.00
1536;DHT22;761;50.074;8.228;2022-12-18T08:30:36;-5.20;1.00
1536;DHT22;761;50.074;8.228;2022-12-18T08:33:05;-5.60;1.00
1536;DHT22;761;50.074;8.228;2022-12-18T08:35:35;-5.10;1.00
1536;DHT22;761;50.074;8.228;2022-12-18T08:38:11;-5.10;1.00
1536;DHT22;761;50.074;8.228;2022-12-18T08:40:43;-5.10;1.00
1536;DHT22;761;50.074;8.228;2022-12-18T08:43:11;-5.10;1.00
1536;DHT22;761;50.074;8.228;2022-12-18T08:45:57;-5.00;1.00
1536;DHT22;761;50.074;8.228;2022-12-18T08:48:25;-5.10;1.00
1536;DHT22;761;50.074;8.228;2022-12-18T08:50:54;-4.80;1.00
1536;DHT22;761;50.074;8.228;2022-12-18T08:53:26;-4.90;1.00
1536;DHT22;761;50.074;8.228;2022-12-18T08:56:03;-4.80;1.00
1536;DHT22;761;50.074;8.228;2022-12-18T08:58:33;-4.40;1.00
1536;DHT22;761;50.074;8.228;2022-12-18T09:01:02;-4.70;1.00
1536;DHT22;761;50.074;8.228;2022-12-18T09:03:31;-4.20;1.00
1536;DHT22;761;50.074;8.228;2022-12-18T09:06:00;-4.40;1.00
1536;DHT22;761;50.074;8.228;2022-12-18T09:08:29;-4.40;1.00
1536;DHT22;761;50.074;8.228;2022-12-18T09:11:01;-4.90;1.00
1536;DHT22;761;50.074;8.228;2022-12-18T09:13:30;-4.80;1.00
1536;DHT22;761;50.074;8.228;2022-12-18T09:15:58;-4.70;1.00
1536;DHT22;761;50.074;8.228;2022-12-18T09:18:29;-4.70;1.00
1536;DHT22;761;50.074;8.228;2022-12-18T09:20:58;-5.10;1.00
1536;DHT22;761;50.074;8.228;2022-12-18T09:23:29;-4.80;1.00
1536;DHT22;761;50.074;8.228;2022-12-18T09:25:58;-2.00;1.00
1536;DHT22;761;50.074;8.228;2022-12-18T09:28:28;-3.90;1.00
1536;DHT22;761;50.074;8.228;2022-12-18T09:30:56;-3.70;1.00
1536;DHT22;761;50.074;8.228;2022-12-18T09:35:56;-3.10;1.00
1536;DHT22;761;50.074;8.228;2022-12-18T09:38:24;-3.10;1.00
1536;DHT22;761;50.074;8.228;2022-12-18T09:40:54;-2.90;1.00
1536;DHT22;761;50.074;8.228;2022-12-18T09:43:28;-2.60;1.00
1536;DHT22;761;50.074;8.228;2022-12-18T09:46:05;-2.20;1.00
1536;DHT22;761;50.074;8.228;2022-12-18T09:48:41;-2.20;1.00
1536;DHT22;761;50.074;8.228;2022-12-18T09:51:15;-1.80;1.00
1536;DHT22;761;50.074;8.228;2022-12-18T09:53:49;-2.00;1.00
1536;DHT22;761;50.074;8.228;2022-12-18T09:56:20;-2.20;1.00
1536;DHT22;761;50.074;8.228;2022-12-18T09:58:57;-2.20;1.00
1536;DHT22;761;50.074;8.228;2022-12-18T10:01:27;-1.80;1.00
1536;DHT22;761;50.074;8.228;2022-12-18T10:04:09;-1.80;1.00
1536;DHT22;761;50.074;8.228;2022-12-18T10:06:44;-2.00;1.00
1536;DHT22;761;50.074;8.228;2022-12-18T10:09:19;-2.40;1.00
1536;DHT22;761;50.074;8.228;2022-12-18T10:11:55;-2.70;1.00
1536;DHT22;761;50.074;8.228;2022-12-18T10:14:30;-2.70;1.00
1536;DHT22;761;50.074;8.228;2022-12-18T10:17:11;-2.50;1.00
1536;DHT22;761;50.074;8.228;2022-12-18T10:19:46;-2.40;1.00
1536;DHT22;761;50.074;8.228;2022-12-18T10:22:36;-2.50;1.00
1536;DHT22;761;50.074;8.228;2022-12-18T10:25:17;-2.70;1.00
1536;DHT22;761;50.074;8.228;2022-12-18T10:27:47;-2.40;1.00
1536;DHT22;761;50.074;8.228;2022-12-18T10:30:19;-2.40;1.00
1536;DHT22;761;50.074;8.228;2022-12-18T10:32:50;-2.40;1.00
1536;DHT22;761;50.074;8.228;2022-12-18T10:35:26;-2.70;1.00
1536;DHT22;761;50.074;8.228;2022-12-18T10:38:06;-3.00;1.00
1536;DHT22;761;50.074;8.228;2022-12-18T10:40:49;-2.90;1.00
1536;DHT22;761;50.074;8.228;2022-12-18T10:43:21;-2.90;1.00
1536;DHT22;761;50.074;8.228;2022-12-18T10:46:14;-3.00;1.00
1536;DHT22;761;50.074;8.228;2022-12-18T10:48:53;-3.00;1.00
1536;DHT22;761;50.074;8.228;2022-12-18T10:51:28;-2.60;1.00
1536;DHT22;761;50.074;8.228;2022-12-18T10:54:00;-2.30;1.00
1536;DHT22;761;50.074;8.228;2022-12-18T10:56:33;-2.50;1.00
1536;DHT22;761;50.074;8.228;2022-12-18T10:59:04;-2.50;1.00
1536;DHT22;761;50.074;8.228;2022-12-18T11:01:48;-2.60;1.00
1536;DHT22;761;50.074;8.228;2022-12-18T11:04:20;-2.40;1.00
1536;DHT22;761;50.074;8.228;2022-12-18T11:06:59;-2.40;1.00
1536;DHT22;761;50.074;8.228;2022-12-18T11:09:31;-2.40;1.00
1536;DHT22;761;50.074;8.228;2022-12-18T11:12:02;-2.40;1.00
1536;DHT22;761;50.074;8.228;2022-12-18T11:14:43;-2.60;1.00
1536;DHT22;761;50.074;8.228;2022-12-18T11:17:20;-2.50;1.00
1536;DHT22;761;50.074;8.228;2022-12-18T11:19:56;-2.00;1.00
